createdAt,value
2019-04-28T00:01:57.322Z,21.10
2019-04-28T00:04:25.529Z,20.97
2019-04-28T00:06:54.033Z,23.63
2019-04-28T00:09:23.165Z,21.20
2019-04-28T00:11:53.364Z,21.47
2019-04-28T00:14:22.123Z,23.33
2019-04-28T00:16:51.156Z,23.47
2019-04-28T00:19:20.948Z,22.43
2019-04-28T00:21:57.091Z,22.97
2019-04-28T00:24:43.186Z,22.80
2019-04-28T00:27:12.044Z,23.57
2019-04-28T00:29:45.677Z,24.87
2019-04-28T00:32:11.212Z,25.70
2019-04-28T00:34:41.272Z,24.60
2019-04-28T00:37:17.412Z,24.60
2019-04-28T00:39:45.608Z,26.00
2019-04-28T00:42:13.809Z,24.10
2019-04-28T00:44:43.401Z,24.93
2019-04-28T00:47:11.789Z,24.90
2019-04-28T00:49:48.985Z,26.50
2019-04-28T00:52:17.819Z,27.70
2019-04-28T00:54:46.554Z,25.47
2019-04-28T00:57:15.039Z,26.47
2019-04-28T00:59:54.018Z,26.23
2019-04-28T01:02:15.078Z,25.97
2019-04-28T01:04:43.262Z,25.87
2019-04-28T01:07:11.581Z,24.47
2019-04-28T01:09:41.497Z,24.00
2019-04-28T01:12:11.222Z,24.57
2019-04-28T01:14:40.979Z,27.80
2019-04-28T01:17:14.850Z,28.77
2019-04-28T01:19:49.629Z,28.07
2019-04-28T01:22:20.179Z,27.47
2019-04-28T01:24:49.725Z,26.63
2019-04-28T01:27:25.650Z,27.57
2019-04-28T01:30:05.361Z,24.37
2019-04-28T01:32:34.510Z,26.97
2019-04-28T01:35:02.778Z,27.17
2019-04-28T01:37:31.007Z,25.30
2019-04-28T01:39:59.761Z,25.13
2019-04-28T01:42:30.116Z,27.03
2019-04-28T01:44:58.157Z,25.53
2019-04-28T01:47:26.463Z,25.00
2019-04-28T01:49:54.660Z,22.77
2019-04-28T01:52:22.862Z,24.67
2019-04-28T01:54:51.057Z,24.77
2019-04-28T01:57:21.364Z,24.23
2019-04-28T01:59:50.159Z,22.63
2019-04-28T02:02:19.922Z,22.63
2019-04-28T02:04:49.892Z,23.93
2019-04-28T02:07:18.318Z,23.40
2019-04-28T02:09:46.516Z,21.87
2019-04-28T02:12:14.714Z,20.80
2019-04-28T02:14:42.912Z,23.07
2019-04-28T02:17:11.115Z,23.13
2019-04-28T02:19:41.065Z,22.33
2019-04-28T02:22:25.735Z,19.27
2019-04-28T02:24:55.007Z,19.67
2019-04-28T02:27:23.620Z,19.67
2019-04-28T02:29:51.817Z,22.17
2019-04-28T02:32:21.281Z,21.47
2019-04-28T02:34:50.812Z,20.07
2019-04-28T02:37:20.563Z,18.73
2019-04-28T02:39:50.560Z,17.73
2019-04-28T02:42:20.899Z,17.67
2019-04-28T02:44:50.405Z,17.13
2019-04-28T02:47:21.608Z,15.07
2019-04-28T02:50:00.845Z,15.67
2019-04-28T02:52:47.781Z,16.00
2019-04-28T02:55:15.953Z,14.90
2019-04-28T02:57:44.165Z,14.80
2019-04-28T03:00:12.366Z,14.27
2019-04-28T03:02:41.602Z,15.20
2019-04-28T03:05:11.610Z,15.27
2019-04-28T03:07:41.043Z,15.07
2019-04-28T03:10:11.108Z,14.07
2019-04-28T03:12:41.408Z,15.03
2019-04-28T03:15:10.406Z,14.37
2019-04-28T03:17:40.738Z,13.63
2019-04-28T03:20:10.960Z,13.17
2019-04-28T03:22:40.864Z,13.77
2019-04-28T03:25:10.929Z,14.67
2019-04-28T03:27:57.384Z,13.20
2019-04-28T03:30:35.892Z,12.90
2019-04-28T03:33:12.000Z,10.50
2019-04-28T03:35:35.665Z,12.47
2019-04-28T03:38:03.868Z,10.90
2019-04-28T03:40:33.803Z,11.27
2019-04-28T03:43:03.326Z,10.77
2019-04-28T03:45:42.177Z,11.53
2019-04-28T03:48:11.480Z,11.33
2019-04-28T03:50:41.431Z,10.03
2019-04-28T03:53:11.081Z,10.47
2019-04-28T03:55:41.683Z,10.37
2019-04-28T03:58:10.447Z,10.27
2019-04-28T04:00:40.814Z,9.13
2019-04-28T04:03:10.965Z,10.03
2019-04-28T04:05:40.624Z,9.37
2019-04-28T04:08:10.905Z,9.57
2019-04-28T04:10:43.760Z,8.67
2019-04-28T04:13:25.568Z,10.37
2019-04-28T04:15:55.406Z,9.37
2019-04-28T04:18:25.263Z,9.50
2019-04-28T04:20:53.783Z,8.90
2019-04-28T04:23:23.356Z,10.80
2019-04-28T04:25:51.770Z,10.17
2019-04-28T04:28:20.685Z,9.70
2019-04-28T04:30:50.755Z,9.93
2019-04-28T04:33:20.809Z,10.93
2019-04-28T04:35:51.727Z,12.53
2019-04-28T04:38:21.762Z,11.17
2019-04-28T04:40:51.276Z,11.83
2019-04-28T04:43:23.013Z,11.80
2019-04-28T04:45:51.000Z,11.87
2019-04-28T04:48:21.528Z,11.27
2019-04-28T04:50:51.027Z,9.70
2019-04-28T04:53:20.786Z,9.37
2019-04-28T04:55:50.535Z,8.93
2019-04-28T04:58:21.219Z,8.80
2019-04-28T05:00:53.161Z,9.00
2019-04-28T05:03:23.326Z,9.43
2019-04-28T05:05:51.532Z,9.57
2019-04-28T05:08:20.278Z,8.57
2019-04-28T05:10:50.427Z,8.47
2019-04-28T05:13:20.083Z,9.43
2019-04-28T05:15:48.426Z,8.87
2019-04-28T05:18:16.616Z,8.17
2019-04-28T05:20:44.819Z,9.53
2019-04-28T05:23:14.640Z,9.93
2019-04-28T05:25:44.016Z,8.67
2019-04-28T05:28:12.541Z,9.07
2019-04-28T05:30:42.972Z,7.73
2019-04-28T05:33:12.314Z,9.60
2019-04-28T05:35:40.513Z,8.13
2019-04-28T05:38:09.972Z,8.57
2019-04-28T05:40:39.878Z,9.10
2019-04-28T05:43:08.447Z,11.83
2019-04-28T05:45:36.646Z,10.90
2019-04-28T05:48:04.843Z,10.23
2019-04-28T05:50:34.687Z,9.63
2019-04-28T05:53:04.831Z,10.07
2019-04-28T05:55:34.688Z,9.07
2019-04-28T05:58:10.502Z,8.17
2019-04-28T06:00:52.592Z,8.37
2019-04-28T06:03:22.436Z,9.43
2019-04-28T06:05:51.001Z,7.27
2019-04-28T06:08:27.147Z,7.13
2019-04-28T06:10:55.355Z,7.23
2019-04-28T06:13:23.904Z,8.60
2019-04-28T06:15:52.118Z,6.43
2019-04-28T06:18:20.627Z,7.30
2019-04-28T06:20:49.823Z,8.07
2019-04-28T06:23:18.033Z,6.80
2019-04-28T06:25:46.253Z,7.13
2019-04-28T06:28:14.460Z,7.50
2019-04-28T06:30:42.681Z,7.53
2019-04-28T06:33:10.883Z,7.40
2019-04-28T06:35:39.414Z,9.93
2019-04-28T06:38:07.912Z,6.73
2019-04-28T06:40:36.113Z,8.43
2019-04-28T06:43:04.320Z,6.70
2019-04-28T06:45:32.828Z,6.27
2019-04-28T06:48:01.026Z,7.47
2019-04-28T06:50:29.235Z,9.13
2019-04-28T06:52:57.435Z,8.23
2019-04-28T06:55:25.929Z,8.80
2019-04-28T06:57:54.126Z,9.60
2019-04-28T07:00:22.340Z,7.07
2019-04-28T07:02:50.537Z,9.03
2019-04-28T07:05:18.750Z,8.60
2019-04-28T07:07:46.995Z,7.17
2019-04-28T07:10:15.160Z,8.80
2019-04-28T07:12:43.373Z,9.43
2019-04-28T07:15:11.584Z,8.83
2019-04-28T07:17:39.778Z,9.90
2019-04-28T07:20:09.637Z,10.00
2019-04-28T07:22:37.837Z,10.00
2019-04-28T07:25:06.305Z,8.93
2019-04-28T07:27:34.508Z,8.30
2019-04-28T07:30:03.423Z,7.10
2019-04-28T07:32:31.637Z,8.87
2019-04-28T07:35:00.179Z,9.13
2019-04-28T07:37:28.385Z,9.77
2019-04-28T07:39:56.967Z,9.67
2019-04-28T07:42:25.119Z,11.10
2019-04-28T07:44:54.955Z,10.73
2019-04-28T07:47:23.165Z,10.27
2019-04-28T07:49:51.370Z,11.23
2019-04-28T07:52:21.221Z,11.70
2019-04-28T07:54:49.795Z,10.73
2019-04-28T07:57:17.987Z,9.63
2019-04-28T07:59:46.536Z,10.93
2019-04-28T08:02:14.740Z,10.27
2019-04-28T08:04:42.956Z,11.80
2019-04-28T08:07:11.170Z,10.23
2019-04-28T08:09:39.384Z,10.73
2019-04-28T08:12:07.582Z,10.43
2019-04-28T08:14:35.790Z,11.07
2019-04-28T08:17:03.999Z,13.57
2019-04-28T08:19:32.210Z,13.03
2019-04-28T08:22:00.408Z,15.00
2019-04-28T08:24:28.859Z,16.40
2019-04-28T08:26:57.354Z,17.10
2019-04-28T08:29:25.555Z,16.50
2019-04-28T08:31:55.409Z,20.03
2019-04-28T08:34:23.620Z,19.17
2019-04-28T08:36:52.106Z,19.10
2019-04-28T08:39:23.064Z,17.77
2019-04-28T08:41:50.246Z,18.73
2019-04-28T08:44:18.776Z,18.60
2019-04-28T08:46:47.363Z,15.60
2019-04-28T08:49:15.558Z,15.13
2019-04-28T08:51:43.764Z,13.40
2019-04-28T08:54:12.001Z,13.53
2019-04-28T08:56:40.199Z,13.90
2019-04-28T08:59:08.425Z,13.67
2019-04-28T09:01:36.638Z,12.63
2019-04-28T09:04:15.145Z,10.67
2019-04-28T09:06:35.115Z,10.10
2019-04-28T09:09:04.960Z,11.20
2019-04-28T09:11:37.383Z,10.20
2019-04-28T09:14:05.558Z,10.80
2019-04-28T09:16:34.054Z,11.00
2019-04-28T09:19:02.255Z,11.47
2019-04-28T09:21:30.469Z,10.87
2019-04-28T09:23:58.674Z,10.07
2019-04-28T09:26:26.905Z,10.20
2019-04-28T09:28:55.122Z,10.37
2019-04-28T09:31:23.336Z,10.60
2019-04-28T09:33:51.875Z,10.37
2019-04-28T09:36:20.106Z,8.50
2019-04-28T09:38:48.377Z,10.30
2019-04-28T09:41:16.901Z,8.23
2019-04-28T09:43:52.424Z,8.03
2019-04-28T09:46:22.343Z,8.67
2019-04-28T09:48:50.663Z,8.73
2019-04-28T09:51:18.866Z,7.03
2019-04-28T09:53:47.087Z,7.60
2019-04-28T09:56:15.282Z,7.20
2019-04-28T09:58:43.944Z,7.70
2019-04-28T10:01:12.271Z,7.93
2019-04-28T10:03:40.487Z,8.27
2019-04-28T10:06:08.800Z,8.70
2019-04-28T10:08:37.017Z,7.10
2019-04-28T10:11:05.226Z,6.63
2019-04-28T10:13:33.806Z,6.90
2019-04-28T10:16:02.330Z,8.23
2019-04-28T10:18:30.625Z,8.97
2019-04-28T10:20:59.149Z,8.47
2019-04-28T10:23:27.731Z,8.30
2019-04-28T10:25:56.211Z,7.87
2019-04-28T10:28:24.691Z,8.27
2019-04-28T10:30:52.898Z,8.37
2019-04-28T10:33:21.448Z,7.70
2019-04-28T10:35:49.664Z,7.83
2019-04-28T10:38:18.205Z,8.27
2019-04-28T10:40:53.742Z,7.93
2019-04-28T10:43:21.973Z,8.80
2019-04-28T10:45:51.043Z,6.70
2019-04-28T10:48:19.609Z,5.33
2019-04-28T10:50:47.886Z,8.87
2019-04-28T10:53:16.108Z,6.87
2019-04-28T10:55:44.364Z,8.57
2019-04-28T10:58:12.582Z,11.47
2019-04-28T11:00:41.705Z,11.73
2019-04-28T11:03:10.287Z,13.40
2019-04-28T11:05:40.120Z,12.53
2019-04-28T11:08:10.040Z,14.23
2019-04-28T11:10:38.244Z,17.73
2019-04-28T11:13:06.526Z,17.83
2019-04-28T11:15:36.378Z,17.37
2019-04-28T11:18:05.638Z,17.93
2019-04-28T11:20:33.855Z,17.90
2019-04-28T11:23:02.068Z,17.47
2019-04-28T11:25:30.694Z,16.87
2019-04-28T11:27:58.920Z,18.03
2019-04-28T11:30:28.591Z,16.77
2019-04-28T11:33:01.359Z,16.47
2019-04-28T11:35:31.811Z,16.73
2019-04-28T11:38:00.094Z,15.17
2019-04-28T11:40:28.430Z,12.47
2019-04-28T11:42:56.940Z,16.13
2019-04-28T11:45:26.326Z,12.67
2019-04-28T11:47:54.809Z,13.30
2019-04-28T11:50:23.024Z,12.20
2019-04-28T11:52:51.255Z,10.57
2019-04-28T11:55:19.464Z,8.87
2019-04-28T11:57:47.659Z,10.23
2019-04-28T12:00:29.927Z,8.87
2019-04-28T12:02:58.134Z,9.67
2019-04-28T12:05:34.407Z,10.57
2019-04-28T12:08:44.760Z,15.90
2019-04-28T12:11:14.941Z,12.97
2019-04-28T12:14:01.194Z,11.10
2019-04-28T12:16:47.541Z,10.37
2019-04-28T12:19:17.391Z,8.57
2019-04-28T12:21:45.930Z,8.27
2019-04-28T12:24:14.211Z,7.33
2019-04-28T12:26:42.415Z,7.67
2019-04-28T12:29:10.969Z,8.80
2019-04-28T12:31:39.442Z,7.97
2019-04-28T12:34:08.024Z,7.77
2019-04-28T12:36:36.222Z,8.07
2019-04-28T12:39:07.188Z,7.60
2019-04-28T12:41:35.388Z,7.50
2019-04-28T12:44:03.605Z,6.93
2019-04-28T12:46:32.067Z,7.47
2019-04-28T12:49:02.207Z,7.50
2019-04-28T12:51:30.775Z,6.53
2019-04-28T12:54:00.627Z,6.73
2019-04-28T12:56:28.835Z,8.23
2019-04-28T12:58:58.673Z,7.13
2019-04-28T13:01:43.809Z,7.83
2019-04-28T13:04:26.143Z,9.37
2019-04-28T13:07:04.968Z,10.20
2019-04-28T13:09:33.552Z,9.87
2019-04-28T13:12:01.759Z,9.90
2019-04-28T13:14:30.068Z,9.87
2019-04-28T13:16:58.802Z,9.30
2019-04-28T13:19:27.384Z,8.40
2019-04-28T13:21:55.578Z,8.87
2019-04-28T13:24:23.790Z,9.40
2019-04-28T13:26:52.423Z,9.20
2019-04-28T13:29:20.888Z,8.67
2019-04-28T13:31:49.092Z,8.43
2019-04-28T13:34:19.305Z,8.10
2019-04-28T13:36:47.484Z,8.77
2019-04-28T13:39:17.324Z,7.87
2019-04-28T13:41:45.532Z,7.57
2019-04-28T13:44:15.385Z,8.33
2019-04-28T13:46:43.594Z,8.07
2019-04-28T13:49:13.667Z,8.43
2019-04-28T13:51:44.893Z,7.97
2019-04-28T13:54:14.715Z,7.97
2019-04-28T13:56:42.974Z,7.57
2019-04-28T13:59:12.767Z,8.23
2019-04-28T14:01:54.769Z,8.13
2019-04-28T14:04:30.694Z,7.57
2019-04-28T14:06:59.088Z,7.07
2019-04-28T14:09:25.077Z,7.97
2019-04-28T14:11:50.791Z,7.13
2019-04-28T14:14:16.552Z,7.03
2019-04-28T14:16:42.366Z,7.47
2019-04-28T14:19:08.407Z,7.07
2019-04-28T14:21:34.358Z,6.90
2019-04-28T14:24:00.079Z,7.07
2019-04-28T14:26:25.846Z,6.30
2019-04-28T14:28:51.620Z,6.33
2019-04-28T14:31:17.727Z,6.67
2019-04-28T14:33:43.491Z,7.03
2019-04-28T14:36:09.374Z,6.77
2019-04-28T14:38:35.167Z,6.80
2019-04-28T14:41:00.977Z,6.57
2019-04-28T14:43:27.012Z,5.97
2019-04-28T14:45:52.844Z,5.77
2019-04-28T14:48:18.677Z,6.10
2019-04-28T14:50:44.389Z,5.93
2019-04-28T14:53:10.304Z,6.00
2019-04-28T14:55:36.432Z,5.87
2019-04-28T14:58:02.197Z,6.53
2019-04-28T15:00:30.195Z,5.67
2019-04-28T15:03:00.651Z,5.57
2019-04-28T15:05:28.364Z,5.70
2019-04-28T15:08:05.049Z,6.63
2019-04-28T15:10:32.776Z,7.20
2019-04-28T15:12:58.981Z,7.90
2019-04-28T15:15:24.964Z,9.77
2019-04-28T15:17:50.884Z,8.67
2019-04-28T15:20:16.669Z,11.17
2019-04-28T15:22:42.432Z,11.60
2019-04-28T15:25:08.189Z,10.30
2019-04-28T15:27:33.981Z,10.77
2019-04-28T15:30:11.040Z,13.33
2019-04-28T15:32:37.725Z,15.80
2019-04-28T15:35:04.495Z,23.90
2019-04-28T15:37:30.269Z,66.07
2019-04-28T15:39:56.030Z,21.97
2019-04-28T15:42:22.077Z,20.90
2019-04-28T15:44:47.853Z,21.23
2019-04-28T15:47:13.917Z,21.10
2019-04-28T15:49:39.675Z,20.17
2019-04-28T15:52:05.436Z,19.77
2019-04-28T15:54:31.188Z,19.80
2019-04-28T15:56:56.957Z,20.43
2019-04-28T15:59:23.006Z,20.83
2019-04-28T16:01:48.782Z,19.40
2019-04-28T16:04:18.009Z,20.03
2019-04-28T16:06:42.542Z,17.37
2019-04-28T16:09:10.483Z,19.43
2019-04-28T16:11:36.604Z,17.90
2019-04-28T16:14:02.365Z,15.67
2019-04-28T16:16:28.189Z,15.87
2019-04-28T16:18:54.267Z,14.50
2019-04-28T16:21:20.034Z,13.90
2019-04-28T16:23:46.061Z,13.63
2019-04-28T16:26:11.865Z,14.00
2019-04-28T16:28:37.625Z,12.70
2019-04-28T16:31:03.881Z,12.73
2019-04-28T16:33:29.992Z,13.13
2019-04-28T16:35:55.786Z,12.63
2019-04-28T16:38:23.639Z,10.27
2019-04-28T16:40:49.607Z,10.53
2019-04-28T16:43:15.724Z,10.53
2019-04-28T16:45:41.498Z,10.60
2019-04-28T16:48:07.569Z,9.63
2019-04-28T16:50:33.349Z,9.63
2019-04-28T16:52:59.117Z,9.60
2019-04-28T16:55:35.991Z,10.77
2019-04-28T16:58:20.405Z,8.50
2019-04-28T17:00:48.406Z,8.37
2019-04-28T17:03:14.266Z,9.20
2019-04-28T17:05:40.028Z,10.00
2019-04-28T17:08:05.817Z,9.67
2019-04-28T17:10:31.884Z,8.43
2019-04-28T17:12:58.011Z,8.40
2019-04-28T17:15:23.793Z,8.63
2019-04-28T17:17:49.857Z,6.97
2019-04-28T17:20:15.664Z,7.50
2019-04-28T17:22:41.472Z,7.80
2019-04-28T17:25:07.233Z,5.63
2019-04-28T17:27:33.345Z,7.30
2019-04-28T17:29:59.131Z,7.90
2019-04-28T17:32:24.952Z,6.03
2019-04-28T17:34:50.995Z,6.67
